createdAt,value
2018-11-11T00:00:34.372Z,46240.59
2018-11-11T00:02:39.224Z,46269.62
2018-11-11T00:04:44.051Z,46244.46
2018-11-11T00:06:48.947Z,46253.17
2018-11-11T00:08:53.699Z,46266.71
2018-11-11T00:10:58.519Z,46264.78
2018-11-11T00:13:03.579Z,46250.26
2018-11-11T00:15:12.060Z,46268.65
2018-11-11T00:17:16.886Z,46237.68
2018-11-11T00:19:21.768Z,46260.91
2018-11-11T00:21:26.593Z,46272.52
2018-11-11T00:23:31.327Z,46254.14
2018-11-11T00:25:36.500Z,46243.49
2018-11-11T00:27:41.409Z,46255.10
2018-11-11T00:29:46.374Z,46250.26
2018-11-11T00:31:51.263Z,46264.78
2018-11-11T00:33:56.002Z,46269.62
2018-11-11T00:36:00.906Z,46244.46
2018-11-11T00:38:05.783Z,46258.97
2018-11-11T00:40:12.475Z,46240.59
2018-11-11T00:42:17.327Z,46241.55
2018-11-11T00:44:22.423Z,46262.84
2018-11-11T00:46:27.415Z,46245.43
2018-11-11T00:48:32.452Z,46254.14
2018-11-11T00:50:37.373Z,46261.87
2018-11-11T00:52:42.271Z,46236.71
2018-11-11T00:54:47.132Z,46258.97
2018-11-11T00:56:51.992Z,46253.17
2018-11-11T00:58:56.811Z,46275.43
2018-11-11T01:01:01.598Z,46260.91
2018-11-11T01:03:08.530Z,46245.43
2018-11-11T01:05:13.918Z,46253.17
2018-11-11T01:07:18.799Z,46238.65
2018-11-11T01:09:23.572Z,46254.14
2018-11-11T01:11:28.295Z,46256.07
2018-11-11T01:13:33.085Z,46250.26
2018-11-11T01:15:37.954Z,46265.75
2018-11-11T01:17:42.856Z,46262.84
2018-11-11T01:19:47.669Z,46264.78
2018-11-11T01:21:52.601Z,46277.36
2018-11-11T01:23:57.598Z,46272.52
2018-11-11T01:26:02.552Z,46255.10
2018-11-11T01:28:07.610Z,46266.71
2018-11-11T01:30:12.367Z,46265.75
2018-11-11T01:32:17.080Z,46253.17
2018-11-11T01:34:22.010Z,46269.62
2018-11-11T01:36:26.825Z,46248.33
2018-11-11T01:38:31.876Z,46243.49
2018-11-11T01:40:36.724Z,46263.81
2018-11-11T01:42:41.830Z,46254.14
2018-11-11T01:44:46.697Z,46253.17
2018-11-11T01:46:51.602Z,46251.23
2018-11-11T01:48:56.486Z,46250.26
2018-11-11T01:51:01.299Z,46250.26
2018-11-11T01:53:06.621Z,46246.39
2018-11-11T01:55:12.238Z,46270.59
2018-11-11T01:57:17.032Z,46254.14
2018-11-11T01:59:21.957Z,46253.17
2018-11-11T02:01:26.783Z,46254.14
2018-11-11T02:03:31.680Z,46255.10
2018-11-11T02:05:36.537Z,46242.52
2018-11-11T02:07:42.586Z,46253.17
2018-11-11T02:09:47.516Z,46254.14
2018-11-11T02:11:52.201Z,46258.01
2018-11-11T02:13:56.930Z,46257.04
2018-11-11T02:16:01.845Z,46255.10
2018-11-11T02:18:06.987Z,46254.14
2018-11-11T02:20:14.934Z,46258.01
2018-11-11T02:22:19.670Z,46248.33
2018-11-11T02:24:26.706Z,46252.20
2018-11-11T02:26:31.738Z,46253.17
2018-11-11T02:28:36.455Z,46254.14
2018-11-11T02:30:41.304Z,46238.65
2018-11-11T02:32:46.527Z,46229.94
2018-11-11T02:34:51.293Z,46239.62
2018-11-11T02:36:56.072Z,46263.81
2018-11-11T02:39:00.906Z,46260.91
2018-11-11T02:41:06.769Z,46255.10
2018-11-11T02:43:11.475Z,46253.17
2018-11-11T02:45:17.347Z,46259.94
2018-11-11T02:47:22.212Z,46256.07
2018-11-11T02:49:27.012Z,46267.68
2018-11-11T02:51:31.965Z,46262.84
2018-11-11T02:53:36.688Z,46258.97
2018-11-11T02:55:41.600Z,46252.20
2018-11-11T02:59:45.582Z,46261.87
2018-11-11T03:01:50.526Z,46269.62
2018-11-11T03:03:55.301Z,46279.30
2018-11-11T03:06:00.070Z,46260.91
2018-11-11T03:08:04.868Z,46260.91
2018-11-11T03:10:10.816Z,46265.75
2018-11-11T03:12:15.472Z,46258.97
2018-11-11T03:14:20.209Z,46269.62
2018-11-11T03:16:24.920Z,46253.17
2018-11-11T03:18:29.622Z,46265.75
2018-11-11T03:20:34.411Z,46258.01
2018-11-11T03:22:39.241Z,46263.81
2018-11-11T03:24:44.001Z,46263.81
2018-11-11T03:26:48.891Z,46258.01
2018-11-11T03:28:53.816Z,46258.97
2018-11-11T03:30:58.517Z,46267.68
2018-11-11T03:33:03.373Z,46265.75
2018-11-11T03:35:10.288Z,46289.94
2018-11-11T03:37:15.027Z,46263.81
2018-11-11T03:39:19.728Z,46248.33
2018-11-11T03:41:24.455Z,46264.78
2018-11-11T03:43:29.345Z,46264.78
2018-11-11T03:45:34.108Z,46279.30
2018-11-11T03:47:38.868Z,46256.07
2018-11-11T03:49:43.667Z,46255.10
2018-11-11T03:51:48.417Z,46258.01
2018-11-11T03:53:53.119Z,46283.17
2018-11-11T03:55:57.869Z,46272.52
2018-11-11T03:58:02.544Z,46253.17
2018-11-11T04:00:09.979Z,46273.49
2018-11-11T04:02:14.756Z,46260.91
2018-11-11T04:04:19.801Z,46258.01
2018-11-11T04:06:24.696Z,46270.59
2018-11-11T04:08:29.543Z,46269.62
2018-11-11T04:10:34.349Z,46265.75
2018-11-11T04:12:39.300Z,46262.84
2018-11-11T04:14:43.991Z,46278.33
2018-11-11T04:16:48.700Z,46271.55
2018-11-11T04:18:53.409Z,46261.87
2018-11-11T04:20:58.482Z,46245.43
2018-11-11T04:23:03.322Z,46259.94
2018-11-11T04:25:08.467Z,46275.43
2018-11-11T04:27:14.006Z,46264.78
2018-11-11T04:29:18.823Z,46285.10
2018-11-11T04:31:23.647Z,46291.88
2018-11-11T04:33:28.405Z,46269.62
2018-11-11T04:35:33.191Z,46270.59
2018-11-11T04:37:38.019Z,46274.46
2018-11-11T04:39:43.080Z,46269.62
2018-11-11T04:41:47.854Z,46267.68
2018-11-11T04:43:52.542Z,46266.71
2018-11-11T04:45:57.291Z,46274.46
2018-11-11T04:48:02.103Z,46266.71
2018-11-11T04:50:09.125Z,46288.01
2018-11-11T04:52:13.963Z,46258.01
2018-11-11T04:54:18.922Z,46273.49
2018-11-11T04:56:23.683Z,46276.39
2018-11-11T04:58:28.364Z,46288.01
2018-11-11T05:00:33.078Z,46272.52
2018-11-11T05:02:37.954Z,46272.52
2018-11-11T05:04:42.830Z,46265.75
2018-11-11T05:06:47.648Z,46253.17
2018-11-11T05:08:52.448Z,46279.30
2018-11-11T05:10:57.226Z,46283.17
2018-11-11T05:13:02.004Z,46258.97
2018-11-11T05:15:08.158Z,46274.46
2018-11-11T05:17:12.857Z,46268.65
2018-11-11T05:19:17.678Z,46258.01
2018-11-11T05:21:22.414Z,46274.46
2018-11-11T05:23:27.240Z,46263.81
2018-11-11T05:25:32.190Z,46289.94
2018-11-11T05:27:37.034Z,46288.01
2018-11-11T05:29:41.750Z,46293.81
2018-11-11T05:31:46.559Z,46284.14
2018-11-11T05:33:51.367Z,46241.55
2018-11-11T05:35:56.187Z,46282.20
2018-11-11T05:38:00.900Z,46302.52
2018-11-11T05:40:06.962Z,46277.36
2018-11-11T05:42:11.701Z,46280.27
2018-11-11T05:44:16.496Z,46267.68
2018-11-11T05:46:21.266Z,46269.62
2018-11-11T05:48:26.074Z,46261.87
2018-11-11T05:50:30.796Z,46279.30
2018-11-11T05:52:35.540Z,46274.46
2018-11-11T05:54:40.252Z,46254.14
2018-11-11T05:56:45.097Z,46258.97
2018-11-11T05:58:49.820Z,46273.49
2018-11-11T06:00:54.646Z,46285.10
2018-11-11T06:02:59.552Z,46263.81
2018-11-11T06:05:04.593Z,46288.97
2018-11-11T06:07:09.486Z,46276.39
2018-11-11T06:09:14.373Z,46283.17
2018-11-11T06:11:19.178Z,46258.01
2018-11-11T06:13:24.010Z,46263.81
2018-11-11T06:15:28.959Z,46277.36
2018-11-11T06:17:33.841Z,46288.01
2018-11-11T06:19:38.736Z,46265.75
2018-11-11T06:21:45.006Z,46257.04
2018-11-11T06:23:49.710Z,46262.84
2018-11-11T06:25:54.586Z,46258.97
2018-11-11T06:27:59.386Z,46257.04
2018-11-11T06:30:04.526Z,46264.78
2018-11-11T06:32:09.405Z,46265.75
2018-11-11T06:34:14.345Z,46265.75
2018-11-11T06:36:19.022Z,46293.81
2018-11-11T06:38:23.613Z,46267.68
2018-11-11T06:40:28.233Z,46267.68
2018-11-11T06:42:32.938Z,46276.39
2018-11-11T06:44:37.609Z,46278.33
2018-11-11T06:46:42.302Z,46263.81
2018-11-11T06:48:48.021Z,46268.65
2018-11-11T06:50:52.753Z,46249.30
2018-11-11T06:52:57.506Z,46287.04
2018-11-11T06:55:02.247Z,46260.91
2018-11-11T06:57:07.394Z,46284.14
2018-11-11T06:59:12.180Z,46264.78
2018-11-11T07:01:16.908Z,46263.81
2018-11-11T07:03:38.164Z,46272.52
2018-11-11T07:05:43.076Z,46258.01
2018-11-11T07:07:47.892Z,46281.23
2018-11-11T07:09:52.786Z,46285.10
2018-11-11T07:11:57.922Z,46288.01
2018-11-11T07:14:02.897Z,46264.78
2018-11-11T07:16:07.653Z,46252.20
2018-11-11T07:18:12.647Z,46263.81
2018-11-11T07:20:17.402Z,46269.62
2018-11-11T07:22:22.120Z,46258.01
2018-11-11T07:24:27.142Z,46276.39
2018-11-11T07:26:32.212Z,46281.23
2018-11-11T07:28:40.936Z,46273.49
2018-11-11T07:30:47.536Z,46261.87
2018-11-11T07:32:52.312Z,46260.91
2018-11-11T07:34:57.098Z,46272.52
2018-11-11T07:37:01.914Z,46275.43
2018-11-11T07:39:12.339Z,46261.87
2018-11-11T07:41:17.175Z,46268.65
2018-11-11T07:43:22.257Z,46288.01
2018-11-11T07:45:27.368Z,46277.36
2018-11-11T07:47:34.728Z,46272.52
2018-11-11T07:49:40.243Z,46263.81
2018-11-11T07:51:45.378Z,46284.14
2018-11-11T07:53:50.468Z,46271.55
2018-11-11T07:55:57.854Z,46280.27
2018-11-11T07:58:03.863Z,46267.68
2018-11-11T08:00:15.440Z,46272.52
2018-11-11T08:02:21.017Z,46279.30
2018-11-11T08:04:26.325Z,46294.78
2018-11-11T08:06:31.571Z,46292.84
2018-11-11T08:08:37.566Z,46273.49
2018-11-11T08:10:58.948Z,46290.91
2018-11-11T08:13:03.884Z,46279.30
2018-11-11T08:15:08.936Z,46281.23
2018-11-11T08:17:14.098Z,46285.10
2018-11-11T08:19:19.472Z,46273.49
2018-11-11T08:21:31.919Z,46285.10
2018-11-11T08:23:36.884Z,46270.59
2018-11-11T08:25:41.900Z,46277.36
2018-11-11T08:27:46.851Z,46285.10
2018-11-11T08:29:51.668Z,46285.10
2018-11-11T08:31:56.698Z,46265.75
2018-11-11T08:34:01.784Z,46282.20
2018-11-11T08:36:07.380Z,46296.72
2018-11-11T08:38:12.542Z,46270.59
2018-11-11T08:40:18.283Z,46262.84
2018-11-11T08:42:23.922Z,46276.39
2018-11-11T08:44:28.723Z,46283.17
2018-11-11T08:46:33.534Z,46294.78
2018-11-11T08:48:38.750Z,46288.01
2018-11-11T08:50:44.266Z,46279.30
2018-11-11T08:52:49.059Z,46283.17
2018-11-11T08:54:53.898Z,46300.59
2018-11-11T08:56:58.743Z,46286.07
2018-11-11T08:59:03.518Z,46287.04
2018-11-11T09:01:08.170Z,46285.10
2018-11-11T09:03:13.340Z,46298.65
2018-11-11T09:05:18.200Z,46295.75
2018-11-11T09:07:23.193Z,46290.91
2018-11-11T09:09:28.151Z,46288.97
2018-11-11T09:11:33.247Z,46314.14
2018-11-11T09:13:37.919Z,46302.52
2018-11-11T09:15:42.790Z,46274.46
2018-11-11T09:17:47.669Z,46292.84
2018-11-11T09:19:52.500Z,46302.52
2018-11-11T09:21:57.242Z,46307.36
2018-11-11T09:24:02.197Z,46271.55
2018-11-11T09:26:07.346Z,46295.75
2018-11-11T09:28:12.218Z,46294.78
2018-11-11T09:30:18.027Z,46279.30
2018-11-11T09:32:22.838Z,46304.46
2018-11-11T09:34:27.608Z,46294.78
2018-11-11T09:36:32.489Z,46314.14
2018-11-11T09:38:37.402Z,46291.88
2018-11-11T09:40:42.630Z,46316.07
2018-11-11T09:42:54.299Z,46301.55
2018-11-11T09:44:59.372Z,46300.59
2018-11-11T09:47:05.843Z,46313.17
2018-11-11T09:49:10.836Z,46291.88
2018-11-11T09:51:15.677Z,46303.49
2018-11-11T09:53:21.431Z,46292.84
2018-11-11T09:55:26.824Z,46319.94
2018-11-11T09:57:31.570Z,46308.33
2018-11-11T09:59:36.465Z,46296.72
2018-11-11T10:01:41.374Z,46313.17
2018-11-11T10:04:52.860Z,46319.94
2018-11-11T10:07:02.481Z,46317.04
2018-11-11T10:09:20.214Z,46318.01
2018-11-11T10:13:34.225Z,46315.11
2018-11-11T10:15:58.179Z,46337.36
2018-11-11T10:20:11.566Z,46288.01
2018-11-11T10:22:29.282Z,46328.65
2018-11-11T10:24:39.172Z,46294.78
2018-11-11T10:26:49.108Z,46310.27
2018-11-11T10:28:59.739Z,46313.17
2018-11-11T10:31:09.307Z,46300.59
2018-11-11T10:33:26.973Z,46319.94
2018-11-11T10:35:53.579Z,46358.65
2018-11-11T10:38:04.526Z,46329.62
2018-11-11T10:40:15.322Z,46316.07
2018-11-11T10:42:24.203Z,46321.88
2018-11-11T10:45:38.094Z,46341.23
2018-11-11T10:47:54.500Z,46331.55
2018-11-11T10:50:02.200Z,46327.68
2018-11-11T10:52:07.454Z,46327.68
2018-11-11T10:54:12.210Z,46314.14
2018-11-11T10:56:16.944Z,46323.81
2018-11-11T10:58:21.821Z,46319.94
2018-11-11T11:00:30.800Z,46306.39
2018-11-11T11:02:40.804Z,46333.49
2018-11-11T11:04:51.245Z,46332.52
2018-11-11T11:07:02.296Z,46340.27
2018-11-11T11:09:12.150Z,46319.94
2018-11-11T11:11:17.106Z,46333.49
2018-11-11T11:13:22.437Z,46349.94
2018-11-11T11:15:27.267Z,46328.65
2018-11-11T11:17:32.186Z,46331.55
2018-11-11T11:19:37.101Z,46322.85
2018-11-11T11:21:41.872Z,46301.55
2018-11-11T11:23:46.616Z,46318.01
2018-11-11T11:25:51.824Z,46343.17
2018-11-11T11:27:56.940Z,46316.07
2018-11-11T11:30:06.481Z,46318.97
2018-11-11T11:32:11.592Z,46297.68
2018-11-11T11:34:17.856Z,46323.81
2018-11-11T11:36:23.341Z,46322.85
2018-11-11T11:38:28.428Z,46318.97
2018-11-11T11:40:33.472Z,46330.59
2018-11-11T11:42:39.201Z,46352.85
2018-11-11T11:44:44.135Z,46315.11
2018-11-11T11:46:49.001Z,46329.62
2018-11-11T11:48:53.811Z,46329.62
2018-11-11T11:50:58.890Z,46323.81
2018-11-11T11:53:03.883Z,46328.65
2018-11-11T11:55:10.111Z,46326.72
2018-11-11T11:57:15.048Z,46319.94
2018-11-11T11:59:20.003Z,46268.65
2018-11-11T12:01:24.889Z,46321.88
2018-11-11T12:03:29.856Z,46325.75
2018-11-11T12:05:34.713Z,46329.62
2018-11-11T12:07:39.823Z,46329.62
2018-11-11T12:09:44.840Z,46314.14
2018-11-11T12:11:51.286Z,46319.94
2018-11-11T12:13:56.463Z,46323.81
2018-11-11T12:16:02.153Z,46335.43
2018-11-11T12:18:07.368Z,46330.59
2018-11-11T12:20:12.860Z,46348.98
2018-11-11T12:22:18.074Z,46335.43
2018-11-11T12:24:23.190Z,46327.68
2018-11-11T12:26:28.860Z,46321.88
2018-11-11T12:28:34.635Z,46328.65
2018-11-11T12:30:42.405Z,46344.14
2018-11-11T12:32:47.421Z,46330.59
2018-11-11T12:34:52.474Z,46319.94
2018-11-11T12:36:57.297Z,46323.81
2018-11-11T12:39:04.826Z,46346.07
2018-11-11T12:41:10.932Z,46309.30
2018-11-11T12:43:16.257Z,46313.17
2018-11-11T12:45:22.742Z,46336.39
2018-11-11T12:47:31.351Z,46320.91
2018-11-11T12:49:41.955Z,46315.11
2018-11-11T12:53:57.605Z,46329.62
2018-11-11T12:56:02.799Z,46318.01
2018-11-11T12:58:07.966Z,46315.11
2018-11-11T13:00:14.556Z,46307.36
2018-11-11T13:02:19.581Z,46322.85
2018-11-11T13:04:24.836Z,46323.81
2018-11-11T13:06:29.910Z,46313.17
2018-11-11T13:08:35.688Z,46320.91
2018-11-11T13:10:40.908Z,46317.04
2018-11-11T13:12:45.938Z,46311.23
2018-11-11T13:14:51.002Z,46316.07
2018-11-11T13:16:56.298Z,46319.94
2018-11-11T13:19:01.621Z,46309.30
2018-11-11T13:21:07.225Z,46308.33
2018-11-11T13:23:13.002Z,46298.65
2018-11-11T13:25:18.602Z,46309.30
2018-11-11T13:27:26.075Z,46294.78
2018-11-11T13:29:32.204Z,46289.94
2018-11-11T13:31:38.733Z,46273.49
2018-11-11T13:33:44.352Z,46295.75
2018-11-11T13:35:54.126Z,46290.91
2018-11-11T13:38:00.204Z,46316.07
2018-11-11T13:40:09.492Z,46313.17
2018-11-11T13:42:15.594Z,46297.68
2018-11-11T13:44:21.070Z,46312.20
2018-11-11T13:46:26.957Z,46312.20
2018-11-11T13:48:33.224Z,46296.72
2018-11-11T13:50:38.576Z,46284.14
2018-11-11T13:52:44.327Z,46298.65
2018-11-11T13:54:49.764Z,46296.72
2018-11-11T13:56:55.149Z,46300.59
2018-11-11T13:59:00.545Z,46310.27
2018-11-11T14:01:06.576Z,46305.43
2018-11-11T14:03:11.669Z,46312.20
2018-11-11T14:05:18.474Z,46297.68
2018-11-11T14:07:24.457Z,46299.62
2018-11-11T14:09:30.877Z,46298.65
2018-11-11T14:11:36.270Z,46294.78
2018-11-11T14:13:41.504Z,46270.59
2018-11-11T14:15:46.634Z,46282.20
2018-11-11T14:17:52.374Z,46288.97
2018-11-11T14:19:57.347Z,46301.55
2018-11-11T14:22:02.531Z,46282.20
2018-11-11T14:24:07.460Z,46275.43
2018-11-11T14:26:12.818Z,46295.75
2018-11-11T14:28:19.773Z,46289.94
2018-11-11T14:30:26.194Z,46305.43
2018-11-11T14:32:30.975Z,46261.87
2018-11-11T14:34:38.553Z,46279.30
2018-11-11T14:36:45.622Z,46287.04
2018-11-11T14:38:56.226Z,46279.30
2018-11-11T14:41:01.147Z,46261.87
2018-11-11T14:43:11.297Z,46277.36
2018-11-11T14:50:01.841Z,46297.68
2018-11-11T14:52:07.515Z,46300.59
2018-11-11T14:54:12.704Z,46291.88
2018-11-11T14:56:17.838Z,46267.68
2018-11-11T14:58:22.876Z,46274.46
2018-11-11T15:00:35.082Z,46310.27
2018-11-11T15:02:40.222Z,46267.68
2018-11-11T15:04:45.139Z,46284.14
2018-11-11T15:06:49.927Z,46285.10
2018-11-11T15:08:55.199Z,46292.84
2018-11-11T15:11:00.159Z,46302.52
2018-11-11T15:13:07.561Z,46286.07
2018-11-11T15:15:16.244Z,46288.97
2018-11-11T15:17:23.869Z,46270.59
2018-11-11T15:19:29.633Z,46299.62
2018-11-11T15:21:35.589Z,46274.46
2018-11-11T15:23:40.943Z,46292.84
2018-11-11T15:25:46.067Z,46280.27
2018-11-11T15:27:51.573Z,46295.75
2018-11-11T15:29:56.641Z,46286.07
2018-11-11T15:32:03.241Z,46298.65
2018-11-11T15:34:08.170Z,46277.36
2018-11-11T15:36:13.381Z,46273.49
2018-11-11T15:38:18.442Z,46275.43
2018-11-11T15:40:27.647Z,46279.30
2018-11-11T15:42:32.648Z,46294.78
2018-11-11T15:44:37.733Z,46284.14
2018-11-11T15:46:42.731Z,46274.46
2018-11-11T15:48:47.751Z,46278.33
2018-11-11T15:50:53.040Z,46268.65
2018-11-11T15:52:59.320Z,46270.59
2018-11-11T15:55:04.345Z,46272.52
2018-11-11T15:57:09.684Z,46299.62
2018-11-11T15:59:15.133Z,46269.62
2018-11-11T16:01:20.841Z,46271.55
2018-11-11T16:03:25.870Z,46287.04
2018-11-11T16:05:30.845Z,46296.72
2018-11-11T16:07:36.145Z,46292.84
2018-11-11T16:09:43.344Z,46269.62
2018-11-11T16:11:50.118Z,46264.78
2018-11-11T16:13:55.392Z,46278.33
2018-11-11T16:16:00.446Z,46278.33
2018-11-11T16:18:07.942Z,46280.27
2018-11-11T16:20:22.301Z,46311.23
2018-11-11T16:22:27.519Z,46265.75
2018-11-11T16:24:32.536Z,46283.17
2018-11-11T16:26:38.129Z,46276.39
2018-11-11T16:28:44.050Z,46265.75
2018-11-11T16:30:49.938Z,46280.27
2018-11-11T16:32:56.383Z,46266.71
2018-11-11T16:35:01.503Z,46262.84
2018-11-11T16:37:06.922Z,46284.14
2018-11-11T16:39:13.168Z,46272.52
2018-11-11T16:41:22.978Z,46296.72
2018-11-11T16:43:28.375Z,46265.75
2018-11-11T16:45:34.721Z,46266.71
2018-11-11T16:47:39.956Z,46276.39
2018-11-11T16:49:48.366Z,46266.71
2018-11-11T16:51:53.429Z,46281.23
2018-11-11T16:53:58.927Z,46268.65
2018-11-11T16:56:03.786Z,46297.68
2018-11-11T16:58:08.795Z,46306.39
2018-11-11T17:00:30.687Z,46287.04
2018-11-11T17:02:36.212Z,46292.84
2018-11-11T17:04:42.094Z,46284.14
2018-11-11T17:06:47.356Z,46289.94
2018-11-11T17:08:52.828Z,46279.30
2018-11-11T17:10:58.136Z,46300.59
2018-11-11T17:13:06.182Z,46290.91
2018-11-11T17:15:13.171Z,46271.55
2018-11-11T17:17:18.244Z,46262.84
2018-11-11T17:19:23.268Z,46276.39
2018-11-11T17:21:28.279Z,46271.55
2018-11-11T17:23:35.199Z,46275.43
2018-11-11T17:25:40.279Z,46279.30
2018-11-11T17:27:45.932Z,46264.78
2018-11-11T17:29:51.749Z,46277.36
2018-11-11T17:31:56.889Z,46291.88
2018-11-11T17:34:02.259Z,46269.62
2018-11-11T17:36:07.480Z,46279.30
2018-11-11T17:38:12.427Z,46274.46
2018-11-11T17:40:20.570Z,46276.39
2018-11-11T17:42:25.833Z,46273.49
2018-11-11T17:44:32.392Z,46279.30
2018-11-11T17:46:37.599Z,46266.71
2018-11-11T17:48:43.073Z,46277.36
2018-11-11T17:50:51.143Z,46278.33
2018-11-11T17:52:56.269Z,46273.49
2018-11-11T17:55:01.563Z,46289.94
2018-11-11T17:57:07.463Z,46287.04
2018-11-11T17:59:14.413Z,46271.55
2018-11-11T18:01:21.220Z,46272.52
2018-11-11T18:03:26.759Z,46289.94
2018-11-11T18:05:33.906Z,46284.14
2018-11-11T18:07:39.932Z,46270.59
2018-11-11T18:09:45.292Z,46281.23
2018-11-11T18:11:50.726Z,46260.91
2018-11-11T18:13:56.110Z,46279.30
2018-11-11T18:16:01.826Z,46267.68
2018-11-11T18:18:07.438Z,46270.59
2018-11-11T18:20:17.403Z,46274.46
2018-11-11T18:22:22.681Z,46285.10
2018-11-11T18:24:28.348Z,46278.33
2018-11-11T18:26:35.360Z,46177.68
2018-11-11T18:28:47.717Z,46286.07
2018-11-11T18:30:56.289Z,46278.33
2018-11-11T18:33:05.880Z,46246.39
2018-11-11T18:35:13.403Z,46279.30
2018-11-11T18:37:19.156Z,46277.36
2018-11-11T18:39:28.357Z,46271.55
2018-11-11T18:41:35.139Z,46275.43
2018-11-11T18:43:53.213Z,46256.07
2018-11-11T18:45:58.615Z,46287.04
2018-11-11T18:48:05.113Z,46278.33
2018-11-11T18:50:18.370Z,46271.55
2018-11-11T18:52:25.121Z,46264.78
2018-11-11T18:54:30.632Z,46275.43
2018-11-11T18:56:36.420Z,46276.39
2018-11-11T18:58:42.224Z,46265.75
2018-11-11T19:00:48.000Z,46297.68
2018-11-11T19:02:54.247Z,46271.55
2018-11-11T19:05:00.363Z,46269.62
2018-11-11T19:07:05.614Z,46262.84
2018-11-11T19:09:13.637Z,46256.07
2018-11-11T19:11:19.934Z,46258.01
2018-11-11T19:13:25.464Z,46234.78
2018-11-11T19:15:30.611Z,46268.65
2018-11-11T19:17:37.765Z,46264.78
2018-11-11T19:19:45.310Z,46278.33
2018-11-11T19:21:50.731Z,46280.27
2018-11-11T19:24:01.435Z,46278.33
2018-11-11T19:26:08.519Z,46273.49
2018-11-11T19:28:14.434Z,46265.75
2018-11-11T19:30:26.353Z,46269.62
2018-11-11T19:32:32.487Z,46272.52
2018-11-11T19:34:37.917Z,46254.14
2018-11-11T19:36:44.197Z,46258.01
2018-11-11T19:38:50.003Z,46291.88
2018-11-11T19:40:57.004Z,46270.59
2018-11-11T19:43:12.405Z,46266.71
2018-11-11T19:45:27.784Z,46288.01
2018-11-11T19:47:38.556Z,46272.52
2018-11-11T19:59:20.372Z,46256.07
2018-11-11T20:01:27.917Z,46276.39
2018-11-11T20:08:22.757Z,46283.17
2018-11-11T20:10:40.311Z,46268.65
2018-11-11T20:12:53.149Z,46260.91
2018-11-11T20:15:14.179Z,46258.01
2018-11-11T20:17:27.181Z,46263.81
2018-11-11T20:19:33.522Z,46261.87
2018-11-11T20:21:43.084Z,46277.36
2018-11-11T20:23:49.653Z,46271.55
2018-11-11T20:26:04.949Z,46239.62
2018-11-11T20:28:10.920Z,46248.33
2018-11-11T20:30:19.587Z,46264.78
2018-11-11T20:32:28.541Z,46263.81
2018-11-11T20:34:34.072Z,46265.75
2018-11-11T20:36:44.592Z,46264.78
2018-11-11T20:38:51.918Z,46263.81
2018-11-11T20:40:59.456Z,46251.23
2018-11-11T20:43:05.656Z,46267.68
2018-11-11T20:45:13.150Z,46256.07
2018-11-11T20:47:20.762Z,46244.46
2018-11-11T20:49:25.859Z,46262.84
2018-11-11T20:51:33.766Z,46258.01
2018-11-11T20:53:49.844Z,46253.17
2018-11-11T20:56:13.793Z,46256.07
2018-11-11T20:58:22.028Z,46246.39
2018-11-11T21:00:32.837Z,46263.81
2018-11-11T21:02:38.808Z,46251.23
2018-11-11T21:04:51.115Z,46258.97
2018-11-11T21:07:04.128Z,46271.55
2018-11-11T21:09:14.386Z,46247.36
2018-11-11T21:11:22.001Z,46255.10
2018-11-11T21:13:29.482Z,46253.17
2018-11-11T21:15:36.683Z,46243.49
2018-11-11T21:17:47.147Z,46258.97
2018-11-11T21:19:54.343Z,46227.04
2018-11-11T21:22:00.197Z,46253.17
2018-11-11T21:24:06.141Z,46222.20
2018-11-11T21:26:20.000Z,46251.23
2018-11-11T21:28:27.520Z,46274.46
2018-11-11T21:32:53.089Z,46266.71
2018-11-11T21:34:59.141Z,46258.97
2018-11-11T21:37:08.680Z,46258.97
2018-11-11T21:39:15.114Z,46253.17
2018-11-11T21:41:21.177Z,46257.04
2018-11-11T21:43:32.512Z,46254.14
2018-11-11T21:45:38.159Z,46250.26
2018-11-11T21:47:44.088Z,46257.04
2018-11-11T21:49:49.393Z,46243.49
2018-11-11T21:51:55.455Z,46260.91
2018-11-11T21:54:01.037Z,46262.84
2018-11-11T21:56:11.634Z,46258.97
2018-11-11T21:58:17.046Z,46242.52
2018-11-11T22:00:34.585Z,46263.81
2018-11-11T22:02:39.760Z,46238.65
2018-11-11T22:04:45.197Z,46263.81
2018-11-11T22:06:54.319Z,46278.33
2018-11-11T22:09:01.143Z,46266.71
2018-11-11T22:11:09.748Z,46252.20
2018-11-11T22:13:19.525Z,46251.23
2018-11-11T22:15:24.888Z,46265.75
2018-11-11T22:17:30.675Z,46242.52
2018-11-11T22:19:37.224Z,46263.81
2018-11-11T22:21:46.772Z,46254.14
2018-11-11T22:23:53.627Z,46293.81
2018-11-11T22:26:00.686Z,46261.87
2018-11-11T22:28:07.657Z,46264.78
2018-11-11T22:30:14.583Z,46270.59
2018-11-11T22:32:20.076Z,46243.49
2018-11-11T22:34:24.953Z,46293.81
2018-11-11T22:36:30.087Z,46249.30
2018-11-11T22:38:37.111Z,46261.87
2018-11-11T22:40:44.945Z,46260.91
2018-11-11T22:42:50.104Z,46274.46
2018-11-11T22:44:54.986Z,46274.46
2018-11-11T22:46:59.906Z,46260.91
2018-11-11T22:49:05.635Z,46253.17
2018-11-11T22:51:11.698Z,46269.62
2018-11-11T22:53:16.947Z,46259.94
2018-11-11T22:55:21.984Z,46247.36
2018-11-11T22:57:28.090Z,46257.04
2018-11-11T22:59:33.381Z,46266.71
2018-11-11T23:01:38.598Z,46252.20
2018-11-11T23:03:43.433Z,46257.04
2018-11-11T23:05:50.197Z,46276.39
2018-11-11T23:07:55.478Z,46287.04
2018-11-11T23:10:00.388Z,46253.17
2018-11-11T23:12:05.489Z,46271.55
2018-11-11T23:14:11.481Z,46262.84
2018-11-11T23:16:16.462Z,46238.65
2018-11-11T23:18:21.672Z,46259.94
2018-11-11T23:20:26.776Z,46261.87
2018-11-11T23:22:31.934Z,46268.65
2018-11-11T23:24:36.817Z,46245.43
2018-11-11T23:26:41.768Z,46257.04
2018-11-11T23:28:46.643Z,46272.52
2018-11-11T23:30:53.406Z,46250.26
2018-11-11T23:32:58.282Z,46242.52
2018-11-11T23:35:03.252Z,46234.78
2018-11-11T23:37:08.316Z,46233.81
2018-11-11T23:39:13.212Z,46259.94
2018-11-11T23:41:20.528Z,46259.94
2018-11-11T23:43:25.552Z,46269.62
2018-11-11T23:45:30.423Z,46261.87
2018-11-11T23:52:15.026Z,46241.55
2018-11-11T23:54:19.873Z,46248.33
2018-11-11T23:56:24.767Z,46239.62
2018-11-11T23:58:29.729Z,46261.87
